sensor_id;sensor_type;location;lat;lon;timestamp;P1;durP1;ratioP1;P2;durP2;ratioP2
34064;SDS011;20339;49.754;20.158;2023-05-10T00:02:13;4.40;;;3.00;;
34064;SDS011;20339;49.754;20.158;2023-05-10T00:04:44;4.20;;;2.80;;
34064;SDS011;20339;49.754;20.158;2023-05-10T00:07:15;4.50;;;2.90;;
34064;SDS011;20339;49.754;20.158;2023-05-10T00:09:46;5.30;;;3.30;;
34064;SDS011;20339;49.754;20.158;2023-05-10T00:12:16;5.30;;;3.00;;
34064;SDS011;20339;49.754;20.158;2023-05-10T00:14:47;3.30;;;3.00;;
34064;SDS011;20339;49.754;20.158;2023-05-10T00:17:18;3.50;;;2.70;;
34064;SDS011;20339;49.754;20.158;2023-05-10T00:19:49;4.30;;;3.20;;
34064;SDS011;20339;49.754;20.158;2023-05-10T00:22:20;4.30;;;3.30;;
34064;SDS011;20339;49.754;20.158;2023-05-10T00:24:50;3.60;;;2.60;;
34064;SDS011;20339;49.754;20.158;2023-05-10T00:27:21;5.00;;;3.40;;
34064;SDS011;20339;49.754;20.158;2023-05-10T00:29:52;3.30;;;2.90;;
34064;SDS011;20339;49.754;20.158;2023-05-10T00:32:23;5.70;;;3.00;;
34064;SDS011;20339;49.754;20.158;2023-05-10T00:34:54;5.30;;;3.40;;
34064;SDS011;20339;49.754;20.158;2023-05-10T00:37:25;4.80;;;3.40;;
34064;SDS011;20339;49.754;20.158;2023-05-10T00:39:55;4.50;;;3.20;;
34064;SDS011;20339;49.754;20.158;2023-05-10T00:42:26;4.90;;;3.50;;
34064;SDS011;20339;49.754;20.158;2023-05-10T00:44:57;5.60;;;3.00;;
34064;SDS011;20339;49.754;20.158;2023-05-10T00:47:28;3.00;;;2.60;;
34064;SDS011;20339;49.754;20.158;2023-05-10T00:50:00;4.00;;;3.10;;
34064;SDS011;20339;49.754;20.158;2023-05-10T00:52:31;4.10;;;3.10;;
34064;SDS011;20339;49.754;20.158;2023-05-10T00:55:02;4.80;;;3.40;;
34064;SDS011;20339;49.754;20.158;2023-05-10T00:57:35;6.00;;;3.40;;
34064;SDS011;20339;49.754;20.158;2023-05-10T01:00:06;4.20;;;2.90;;
34064;SDS011;20339;49.754;20.158;2023-05-10T01:02:39;5.30;;;3.50;;
34064;SDS011;20339;49.754;20.158;2023-05-10T01:05:10;8.30;;;4.00;;
34064;SDS011;20339;49.754;20.158;2023-05-10T01:07:41;5.70;;;3.60;;
34064;SDS011;20339;49.754;20.158;2023-05-10T01:10:12;4.60;;;3.40;;
34064;SDS011;20339;49.754;20.158;2023-05-10T01:12:44;5.20;;;3.30;;
34064;SDS011;20339;49.754;20.158;2023-05-10T01:15:16;4.70;;;3.80;;
34064;SDS011;20339;49.754;20.158;2023-05-10T01:17:49;5.40;;;3.30;;
34064;SDS011;20339;49.754;20.158;2023-05-10T01:20:21;3.50;;;3.00;;
34064;SDS011;20339;49.754;20.158;2023-05-10T01:23:09;5.10;;;3.40;;
34064;SDS011;20339;49.754;20.158;2023-05-10T01:25:55;5.20;;;3.20;;
34064;SDS011;20339;49.754;20.158;2023-05-10T01:32:07;5.20;;;3.70;;
34064;SDS011;20339;49.754;20.158;2023-05-10T01:34:46;5.00;;;3.40;;
34064;SDS011;20339;49.754;20.158;2023-05-10T01:37:25;4.60;;;3.30;;
34064;SDS011;20339;49.754;20.158;2023-05-10T01:40:02;4.60;;;3.50;;
34064;SDS011;20339;49.754;20.158;2023-05-10T01:42:49;4.20;;;3.10;;
34064;SDS011;20339;49.754;20.158;2023-05-10T01:45:24;5.00;;;3.90;;
34064;SDS011;20339;49.754;20.158;2023-05-10T01:48:09;5.40;;;3.60;;
34064;SDS011;20339;49.754;20.158;2023-05-10T01:50:42;6.50;;;3.50;;
34064;SDS011;20339;49.754;20.158;2023-05-10T01:53:17;4.90;;;3.40;;
34064;SDS011;20339;49.754;20.158;2023-05-10T01:55:51;6.00;;;4.10;;
34064;SDS011;20339;49.754;20.158;2023-05-10T01:58:27;5.10;;;3.90;;
34064;SDS011;20339;49.754;20.158;2023-05-10T02:01:01;5.60;;;3.50;;
34064;SDS011;20339;49.754;20.158;2023-05-10T02:03:35;6.40;;;3.40;;
34064;SDS011;20339;49.754;20.158;2023-05-10T02:06:07;7.20;;;3.50;;
34064;SDS011;20339;49.754;20.158;2023-05-10T02:08:41;5.60;;;3.40;;
34064;SDS011;20339;49.754;20.158;2023-05-10T02:11:18;5.70;;;3.80;;
34064;SDS011;20339;49.754;20.158;2023-05-10T02:13:50;4.10;;;3.40;;
34064;SDS011;20339;49.754;20.158;2023-05-10T02:16:25;4.90;;;3.70;;
34064;SDS011;20339;49.754;20.158;2023-05-10T02:18:58;6.10;;;3.90;;
34064;SDS011;20339;49.754;20.158;2023-05-10T02:21:30;6.20;;;4.00;;
34064;SDS011;20339;49.754;20.158;2023-05-10T02:24:02;6.30;;;4.40;;
34064;SDS011;20339;49.754;20.158;2023-05-10T02:26:36;5.60;;;4.10;;
34064;SDS011;20339;49.754;20.158;2023-05-10T02:29:09;7.10;;;4.20;;
34064;SDS011;20339;49.754;20.158;2023-05-10T02:31:42;6.20;;;4.50;;
34064;SDS011;20339;49.754;20.158;2023-05-10T02:34:14;6.30;;;3.80;;
34064;SDS011;20339;49.754;20.158;2023-05-10T02:36:45;5.10;;;4.00;;
34064;SDS011;20339;49.754;20.158;2023-05-10T02:39:16;5.70;;;3.90;;
34064;SDS011;20339;49.754;20.158;2023-05-10T02:41:49;4.80;;;3.70;;
34064;SDS011;20339;49.754;20.158;2023-05-10T02:44:23;4.80;;;3.50;;
34064;SDS011;20339;49.754;20.158;2023-05-10T02:46:56;6.20;;;3.60;;
34064;SDS011;20339;49.754;20.158;2023-05-10T02:49:27;5.50;;;3.80;;
34064;SDS011;20339;49.754;20.158;2023-05-10T02:51:59;5.90;;;4.20;;
34064;SDS011;20339;49.754;20.158;2023-05-10T02:54:36;4.90;;;3.50;;
34064;SDS011;20339;49.754;20.158;2023-05-10T02:57:14;5.00;;;3.80;;
34064;SDS011;20339;49.754;20.158;2023-05-10T02:59:51;5.50;;;3.50;;
34064;SDS011;20339;49.754;20.158;2023-05-10T03:02:22;5.60;;;3.90;;
34064;SDS011;20339;49.754;20.158;2023-05-10T03:04:54;5.70;;;3.80;;
34064;SDS011;20339;49.754;20.158;2023-05-10T03:07:24;5.60;;;3.10;;
34064;SDS011;20339;49.754;20.158;2023-05-10T03:09:55;5.40;;;3.90;;
34064;SDS011;20339;49.754;20.158;2023-05-10T03:12:30;7.20;;;3.80;;
34064;SDS011;20339;49.754;20.158;2023-05-10T03:15:22;4.80;;;4.00;;
34064;SDS011;20339;49.754;20.158;2023-05-10T03:18:04;8.10;;;3.10;;
34064;SDS011;20339;49.754;20.158;2023-05-10T03:20:41;3.90;;;3.40;;
34064;SDS011;20339;49.754;20.158;2023-05-10T03:23:17;4.80;;;3.50;;
34064;SDS011;20339;49.754;20.158;2023-05-10T03:25:55;5.20;;;3.60;;
34064;SDS011;20339;49.754;20.158;2023-05-10T03:28:28;4.30;;;3.30;;
34064;SDS011;20339;49.754;20.158;2023-05-10T03:31:00;3.70;;;3.10;;
34064;SDS011;20339;49.754;20.158;2023-05-10T03:33:33;5.80;;;3.80;;
34064;SDS011;20339;49.754;20.158;2023-05-10T03:36:04;4.40;;;3.50;;
34064;SDS011;20339;49.754;20.158;2023-05-10T03:38:36;5.70;;;3.30;;
34064;SDS011;20339;49.754;20.158;2023-05-10T03:41:06;5.00;;;3.70;;
34064;SDS011;20339;49.754;20.158;2023-05-10T03:43:37;4.40;;;3.40;;
34064;SDS011;20339;49.754;20.158;2023-05-10T03:46:09;4.20;;;3.60;;
34064;SDS011;20339;49.754;20.158;2023-05-10T03:48:39;5.80;;;3.40;;
34064;SDS011;20339;49.754;20.158;2023-05-10T03:51:10;6.10;;;4.50;;
34064;SDS011;20339;49.754;20.158;2023-05-10T03:53:41;4.30;;;3.30;;
34064;SDS011;20339;49.754;20.158;2023-05-10T03:56:12;5.20;;;3.70;;
34064;SDS011;20339;49.754;20.158;2023-05-10T03:58:43;4.90;;;3.80;;
34064;SDS011;20339;49.754;20.158;2023-05-10T04:01:14;7.30;;;3.50;;
34064;SDS011;20339;49.754;20.158;2023-05-10T04:03:45;6.20;;;3.70;;
34064;SDS011;20339;49.754;20.158;2023-05-10T04:06:16;6.30;;;3.90;;
34064;SDS011;20339;49.754;20.158;2023-05-10T04:08:47;4.60;;;3.40;;
34064;SDS011;20339;49.754;20.158;2023-05-10T04:11:17;7.90;;;4.20;;
34064;SDS011;20339;49.754;20.158;2023-05-10T04:13:49;5.10;;;3.90;;
34064;SDS011;20339;49.754;20.158;2023-05-10T04:16:20;7.80;;;4.40;;
34064;SDS011;20339;49.754;20.158;2023-05-10T04:18:51;8.60;;;4.10;;
34064;SDS011;20339;49.754;20.158;2023-05-10T04:21:22;6.90;;;3.50;;
34064;SDS011;20339;49.754;20.158;2023-05-10T04:23:53;5.10;;;3.60;;
34064;SDS011;20339;49.754;20.158;2023-05-10T04:26:24;6.20;;;3.70;;
34064;SDS011;20339;49.754;20.158;2023-05-10T04:28:55;4.00;;;3.20;;
34064;SDS011;20339;49.754;20.158;2023-05-10T04:31:26;3.90;;;3.10;;
34064;SDS011;20339;49.754;20.158;2023-05-10T04:33:57;8.20;;;4.10;;
34064;SDS011;20339;49.754;20.158;2023-05-10T04:36:28;5.30;;;4.10;;
34064;SDS011;20339;49.754;20.158;2023-05-10T04:39:00;5.40;;;4.00;;
34064;SDS011;20339;49.754;20.158;2023-05-10T04:41:31;6.40;;;4.50;;
34064;SDS011;20339;49.754;20.158;2023-05-10T04:44:02;5.50;;;4.00;;
34064;SDS011;20339;49.754;20.158;2023-05-10T04:46:33;8.40;;;4.30;;
34064;SDS011;20339;49.754;20.158;2023-05-10T04:49:04;6.50;;;4.70;;
34064;SDS011;20339;49.754;20.158;2023-05-10T04:51:35;6.80;;;4.60;;
34064;SDS011;20339;49.754;20.158;2023-05-10T04:54:06;6.20;;;3.80;;
34064;SDS011;20339;49.754;20.158;2023-05-10T04:56:37;4.40;;;3.90;;
34064;SDS011;20339;49.754;20.158;2023-05-10T04:59:08;4.90;;;3.40;;
34064;SDS011;20339;49.754;20.158;2023-05-10T05:01:39;5.70;;;3.60;;
34064;SDS011;20339;49.754;20.158;2023-05-10T05:04:10;4.40;;;3.20;;
34064;SDS011;20339;49.754;20.158;2023-05-10T05:06:42;6.10;;;3.40;;
34064;SDS011;20339;49.754;20.158;2023-05-10T05:09:13;3.20;;;2.90;;
34064;SDS011;20339;49.754;20.158;2023-05-10T05:11:44;4.70;;;3.10;;
34064;SDS011;20339;49.754;20.158;2023-05-10T05:14:15;3.80;;;3.00;;
34064;SDS011;20339;49.754;20.158;2023-05-10T05:16:46;4.00;;;2.80;;
34064;SDS011;20339;49.754;20.158;2023-05-10T05:19:17;4.80;;;2.70;;
34064;SDS011;20339;49.754;20.158;2023-05-10T05:21:48;3.30;;;2.50;;
34064;SDS011;20339;49.754;20.158;2023-05-10T05:24:19;2.90;;;2.60;;
34064;SDS011;20339;49.754;20.158;2023-05-10T05:26:50;5.40;;;2.80;;
34064;SDS011;20339;49.754;20.158;2023-05-10T05:29:21;4.20;;;2.40;;
34064;SDS011;20339;49.754;20.158;2023-05-10T05:31:52;5.40;;;2.70;;
34064;SDS011;20339;49.754;20.158;2023-05-10T05:34:23;2.70;;;2.50;;
34064;SDS011;20339;49.754;20.158;2023-05-10T05:36:54;3.70;;;3.00;;
34064;SDS011;20339;49.754;20.158;2023-05-10T05:39:25;3.40;;;2.60;;
34064;SDS011;20339;49.754;20.158;2023-05-10T05:41:56;3.30;;;2.90;;
34064;SDS011;20339;49.754;20.158;2023-05-10T05:44:27;2.80;;;2.40;;
34064;SDS011;20339;49.754;20.158;2023-05-10T05:46:58;3.70;;;2.70;;
34064;SDS011;20339;49.754;20.158;2023-05-10T05:49:29;4.20;;;2.70;;
34064;SDS011;20339;49.754;20.158;2023-05-10T05:52:00;3.10;;;2.20;;
34064;SDS011;20339;49.754;20.158;2023-05-10T05:54:31;4.20;;;2.30;;
34064;SDS011;20339;49.754;20.158;2023-05-10T05:57:02;3.10;;;2.30;;
34064;SDS011;20339;49.754;20.158;2023-05-10T05:59:33;3.00;;;2.10;;
34064;SDS011;20339;49.754;20.158;2023-05-10T06:02:04;3.60;;;2.50;;
34064;SDS011;20339;49.754;20.158;2023-05-10T06:04:35;2.70;;;2.20;;
34064;SDS011;20339;49.754;20.158;2023-05-10T06:07:06;3.20;;;2.40;;
34064;SDS011;20339;49.754;20.158;2023-05-10T06:09:37;3.20;;;2.50;;
34064;SDS011;20339;49.754;20.158;2023-05-10T06:12:08;3.90;;;2.50;;
34064;SDS011;20339;49.754;20.158;2023-05-10T06:14:39;3.50;;;2.70;;
34064;SDS011;20339;49.754;20.158;2023-05-10T06:17:10;3.70;;;2.60;;
34064;SDS011;20339;49.754;20.158;2023-05-10T06:19:41;3.70;;;2.60;;
34064;SDS011;20339;49.754;20.158;2023-05-10T06:22:12;4.00;;;3.00;;
34064;SDS011;20339;49.754;20.158;2023-05-10T06:24:43;3.50;;;2.50;;
34064;SDS011;20339;49.754;20.158;2023-05-10T06:27:14;4.10;;;2.70;;
34064;SDS011;20339;49.754;20.158;2023-05-10T06:29:45;3.00;;;2.50;;
34064;SDS011;20339;49.754;20.158;2023-05-10T06:32:18;3.30;;;2.50;;
34064;SDS011;20339;49.754;20.158;2023-05-10T06:34:48;3.20;;;2.50;;
34064;SDS011;20339;49.754;20.158;2023-05-10T06:37:20;3.00;;;2.50;;
34064;SDS011;20339;49.754;20.158;2023-05-10T06:39:51;3.20;;;2.30;;
34064;SDS011;20339;49.754;20.158;2023-05-10T06:42:22;3.00;;;2.20;;
34064;SDS011;20339;49.754;20.158;2023-05-10T06:44:53;2.10;;;1.90;;
34064;SDS011;20339;49.754;20.158;2023-05-10T06:47:24;2.60;;;1.80;;
34064;SDS011;20339;49.754;20.158;2023-05-10T06:49:55;3.90;;;2.00;;
34064;SDS011;20339;49.754;20.158;2023-05-10T06:52:25;2.50;;;2.00;;
34064;SDS011;20339;49.754;20.158;2023-05-10T06:54:56;2.10;;;1.90;;
34064;SDS011;20339;49.754;20.158;2023-05-10T06:57:28;3.50;;;2.10;;
34064;SDS011;20339;49.754;20.158;2023-05-10T06:59:59;2.00;;;1.80;;
34064;SDS011;20339;49.754;20.158;2023-05-10T07:02:31;2.10;;;1.90;;
34064;SDS011;20339;49.754;20.158;2023-05-10T07:05:03;2.70;;;1.80;;
34064;SDS011;20339;49.754;20.158;2023-05-10T07:07:34;3.50;;;2.00;;
34064;SDS011;20339;49.754;20.158;2023-05-10T07:10:08;5.10;;;1.90;;
34064;SDS011;20339;49.754;20.158;2023-05-10T07:12:39;2.50;;;1.50;;
34064;SDS011;20339;49.754;20.158;2023-05-10T07:15:11;1.50;;;1.30;;
34064;SDS011;20339;49.754;20.158;2023-05-10T07:17:41;1.50;;;1.40;;
34064;SDS011;20339;49.754;20.158;2023-05-10T07:20:13;1.80;;;1.70;;
34064;SDS011;20339;49.754;20.158;2023-05-10T07:22:44;2.00;;;1.60;;
34064;SDS011;20339;49.754;20.158;2023-05-10T07:25:15;3.10;;;1.90;;
34064;SDS011;20339;49.754;20.158;2023-05-10T07:27:46;1.60;;;1.50;;
34064;SDS011;20339;49.754;20.158;2023-05-10T07:30:17;2.30;;;1.60;;
34064;SDS011;20339;49.754;20.158;2023-05-10T07:32:48;1.90;;;1.30;;
34064;SDS011;20339;49.754;20.158;2023-05-10T07:35:19;2.00;;;1.50;;
34064;SDS011;20339;49.754;20.158;2023-05-10T07:37:50;1.60;;;1.50;;
34064;SDS011;20339;49.754;20.158;2023-05-10T07:40:21;2.10;;;1.40;;
34064;SDS011;20339;49.754;20.158;2023-05-10T07:42:52;1.80;;;1.40;;
34064;SDS011;20339;49.754;20.158;2023-05-10T07:45:23;2.10;;;1.40;;
34064;SDS011;20339;49.754;20.158;2023-05-10T07:47:54;1.50;;;1.40;;
34064;SDS011;20339;49.754;20.158;2023-05-10T07:50:25;2.30;;;1.50;;
34064;SDS011;20339;49.754;20.158;2023-05-10T07:52:56;1.80;;;1.30;;
34064;SDS011;20339;49.754;20.158;2023-05-10T07:55:27;1.90;;;1.70;;
34064;SDS011;20339;49.754;20.158;2023-05-10T07:57:58;1.70;;;1.60;;
34064;SDS011;20339;49.754;20.158;2023-05-10T08:00:30;1.90;;;1.40;;
34064;SDS011;20339;49.754;20.158;2023-05-10T08:03:01;2.40;;;1.70;;
34064;SDS011;20339;49.754;20.158;2023-05-10T08:05:32;3.90;;;1.90;;
34064;SDS011;20339;49.754;20.158;2023-05-10T08:08:03;2.00;;;1.50;;
34064;SDS011;20339;49.754;20.158;2023-05-10T08:10:34;1.90;;;1.20;;
34064;SDS011;20339;49.754;20.158;2023-05-10T08:13:05;2.00;;;1.50;;
34064;SDS011;20339;49.754;20.158;2023-05-10T08:15:36;1.50;;;1.40;;
34064;SDS011;20339;49.754;20.158;2023-05-10T08:18:06;2.20;;;1.60;;
34064;SDS011;20339;49.754;20.158;2023-05-10T08:20:37;2.10;;;1.60;;
34064;SDS011;20339;49.754;20.158;2023-05-10T08:23:08;2.20;;;1.40;;
34064;SDS011;20339;49.754;20.158;2023-05-10T08:25:41;4.00;;;1.80;;
34064;SDS011;20339;49.754;20.158;2023-05-10T08:28:12;1.90;;;1.40;;
34064;SDS011;20339;49.754;20.158;2023-05-10T08:30:43;2.10;;;1.90;;
34064;SDS011;20339;49.754;20.158;2023-05-10T08:33:14;4.30;;;2.10;;
34064;SDS011;20339;49.754;20.158;2023-05-10T08:35:46;3.50;;;2.20;;
34064;SDS011;20339;49.754;20.158;2023-05-10T08:38:17;2.30;;;1.80;;
34064;SDS011;20339;49.754;20.158;2023-05-10T08:40:48;2.30;;;1.90;;
34064;SDS011;20339;49.754;20.158;2023-05-10T08:43:24;2.00;;;1.80;;
34064;SDS011;20339;49.754;20.158;2023-05-10T08:45:58;3.40;;;2.10;;
34064;SDS011;20339;49.754;20.158;2023-05-10T08:48:31;4.30;;;2.20;;
34064;SDS011;20339;49.754;20.158;2023-05-10T08:51:04;2.70;;;2.20;;
34064;SDS011;20339;49.754;20.158;2023-05-10T08:53:37;2.70;;;2.20;;
34064;SDS011;20339;49.754;20.158;2023-05-10T08:56:08;4.10;;;2.30;;
34064;SDS011;20339;49.754;20.158;2023-05-10T08:58:39;4.00;;;2.20;;
34064;SDS011;20339;49.754;20.158;2023-05-10T09:01:10;3.40;;;2.60;;
34064;SDS011;20339;49.754;20.158;2023-05-10T09:03:44;4.40;;;2.30;;
34064;SDS011;20339;49.754;20.158;2023-05-10T09:06:16;3.90;;;2.40;;
34064;SDS011;20339;49.754;20.158;2023-05-10T09:08:48;5.00;;;2.80;;
34064;SDS011;20339;49.754;20.158;2023-05-10T09:11:19;2.70;;;2.20;;
34064;SDS011;20339;49.754;20.158;2023-05-10T09:13:51;4.10;;;2.60;;
34064;SDS011;20339;49.754;20.158;2023-05-10T09:16:23;5.30;;;2.20;;
34064;SDS011;20339;49.754;20.158;2023-05-10T09:18:55;4.70;;;2.60;;
34064;SDS011;20339;49.754;20.158;2023-05-10T09:21:26;2.30;;;2.10;;
34064;SDS011;20339;49.754;20.158;2023-05-10T09:23:58;3.90;;;2.50;;
34064;SDS011;20339;49.754;20.158;2023-05-10T09:26:33;4.40;;;2.50;;
34064;SDS011;20339;49.754;20.158;2023-05-10T09:29:14;3.70;;;2.20;;
34064;SDS011;20339;49.754;20.158;2023-05-10T09:31:46;3.10;;;2.30;;
34064;SDS011;20339;49.754;20.158;2023-05-10T09:34:19;3.40;;;2.30;;
34064;SDS011;20339;49.754;20.158;2023-05-10T09:36:58;6.60;;;2.30;;
34064;SDS011;20339;49.754;20.158;2023-05-10T09:39:31;3.10;;;2.20;;
34064;SDS011;20339;49.754;20.158;2023-05-10T09:42:03;3.00;;;2.70;;
34064;SDS011;20339;49.754;20.158;2023-05-10T09:44:35;3.10;;;2.40;;
34064;SDS011;20339;49.754;20.158;2023-05-10T09:47:08;2.80;;;2.30;;
34064;SDS011;20339;49.754;20.158;2023-05-10T09:49:39;3.50;;;2.40;;
34064;SDS011;20339;49.754;20.158;2023-05-10T09:52:12;3.90;;;2.30;;
34064;SDS011;20339;49.754;20.158;2023-05-10T09:54:47;4.20;;;2.40;;
34064;SDS011;20339;49.754;20.158;2023-05-10T09:57:23;2.20;;;1.80;;
34064;SDS011;20339;49.754;20.158;2023-05-10T09:59:54;2.30;;;2.00;;
34064;SDS011;20339;49.754;20.158;2023-05-10T10:02:29;3.60;;;2.30;;
34064;SDS011;20339;49.754;20.158;2023-05-10T10:05:02;3.50;;;2.40;;
34064;SDS011;20339;49.754;20.158;2023-05-10T10:07:36;2.70;;;1.90;;
34064;SDS011;20339;49.754;20.158;2023-05-10T10:10:08;3.90;;;2.10;;
34064;SDS011;20339;49.754;20.158;2023-05-10T10:12:40;2.90;;;2.30;;
34064;SDS011;20339;49.754;20.158;2023-05-10T10:15:13;3.40;;;2.30;;
34064;SDS011;20339;49.754;20.158;2023-05-10T10:17:44;2.60;;;2.00;;
34064;SDS011;20339;49.754;20.158;2023-05-10T10:20:18;3.80;;;2.00;;
34064;SDS011;20339;49.754;20.158;2023-05-10T10:22:50;3.80;;;2.50;;
34064;SDS011;20339;49.754;20.158;2023-05-10T10:25:21;4.50;;;2.60;;
34064;SDS011;20339;49.754;20.158;2023-05-10T10:27:59;2.80;;;1.60;;
34064;SDS011;20339;49.754;20.158;2023-05-10T10:30:51;2.20;;;2.00;;
34064;SDS011;20339;49.754;20.158;2023-05-10T10:33:30;4.30;;;2.50;;
34064;SDS011;20339;49.754;20.158;2023-05-10T10:36:07;3.50;;;1.80;;
34064;SDS011;20339;49.754;20.158;2023-05-10T10:38:41;2.60;;;1.90;;
34064;SDS011;20339;49.754;20.158;2023-05-10T10:41:34;2.60;;;1.90;;
34064;SDS011;20339;49.754;20.158;2023-05-10T10:44:33;3.10;;;2.00;;
34064;SDS011;20339;49.754;20.158;2023-05-10T10:47:07;4.90;;;2.10;;
34064;SDS011;20339;49.754;20.158;2023-05-10T10:50:02;2.10;;;1.70;;
34064;SDS011;20339;49.754;20.158;2023-05-10T10:52:34;2.60;;;1.90;;
34064;SDS011;20339;49.754;20.158;2023-05-10T10:55:08;2.80;;;2.10;;
34064;SDS011;20339;49.754;20.158;2023-05-10T10:57:45;4.60;;;2.20;;
34064;SDS011;20339;49.754;20.158;2023-05-10T11:00:27;3.40;;;2.20;;
34064;SDS011;20339;49.754;20.158;2023-05-10T11:03:01;2.30;;;2.10;;
34064;SDS011;20339;49.754;20.158;2023-05-10T11:05:35;2.80;;;1.90;;
34064;SDS011;20339;49.754;20.158;2023-05-10T11:08:11;2.70;;;1.60;;
34064;SDS011;20339;49.754;20.158;2023-05-10T11:10:50;2.80;;;1.90;;
34064;SDS011;20339;49.754;20.158;2023-05-10T11:13:29;3.90;;;2.20;;
34064;SDS011;20339;49.754;20.158;2023-05-10T11:16:11;3.00;;;2.20;;
34064;SDS011;20339;49.754;20.158;2023-05-10T11:19:01;2.00;;;1.80;;
34064;SDS011;20339;49.754;20.158;2023-05-10T11:21:34;2.40;;;2.10;;
34064;SDS011;20339;49.754;20.158;2023-05-10T11:24:17;3.80;;;1.90;;
34064;SDS011;20339;49.754;20.158;2023-05-10T11:26:50;2.00;;;1.80;;
34064;SDS011;20339;49.754;20.158;2023-05-10T11:29:22;3.40;;;2.00;;
34064;SDS011;20339;49.754;20.158;2023-05-10T11:31:56;2.80;;;1.70;;
34064;SDS011;20339;49.754;20.158;2023-05-10T11:34:28;5.50;;;2.30;;
34064;SDS011;20339;49.754;20.158;2023-05-10T11:37:01;2.40;;;1.80;;
34064;SDS011;20339;49.754;20.158;2023-05-10T11:39:32;8.80;;;1.70;;
34064;SDS011;20339;49.754;20.158;2023-05-10T11:42:03;5.40;;;2.10;;
34064;SDS011;20339;49.754;20.158;2023-05-10T11:44:37;3.00;;;1.80;;
34064;SDS011;20339;49.754;20.158;2023-05-10T11:47:08;3.30;;;2.10;;
34064;SDS011;20339;49.754;20.158;2023-05-10T11:49:42;2.40;;;1.90;;
34064;SDS011;20339;49.754;20.158;2023-05-10T11:52:14;2.30;;;2.00;;
34064;SDS011;20339;49.754;20.158;2023-05-10T11:54:52;2.80;;;1.80;;
34064;SDS011;20339;49.754;20.158;2023-05-10T11:57:25;3.30;;;2.10;;
34064;SDS011;20339;49.754;20.158;2023-05-10T11:59:58;4.10;;;2.20;;
34064;SDS011;20339;49.754;20.158;2023-05-10T12:02:31;2.90;;;2.00;;
34064;SDS011;20339;49.754;20.158;2023-05-10T12:05:03;2.80;;;2.00;;
34064;SDS011;20339;49.754;20.158;2023-05-10T12:07:35;3.70;;;2.30;;
34064;SDS011;20339;49.754;20.158;2023-05-10T12:10:07;2.70;;;1.60;;
34064;SDS011;20339;49.754;20.158;2023-05-10T12:12:42;2.00;;;1.70;;
34064;SDS011;20339;49.754;20.158;2023-05-10T12:15:18;3.40;;;2.20;;
34064;SDS011;20339;49.754;20.158;2023-05-10T12:17:50;2.70;;;2.20;;
34064;SDS011;20339;49.754;20.158;2023-05-10T12:20:22;2.70;;;1.90;;
34064;SDS011;20339;49.754;20.158;2023-05-10T12:22:57;2.60;;;1.70;;
34064;SDS011;20339;49.754;20.158;2023-05-10T12:25:31;4.70;;;2.30;;
34064;SDS011;20339;49.754;20.158;2023-05-10T12:28:04;2.60;;;2.00;;
34064;SDS011;20339;49.754;20.158;2023-05-10T12:30:36;2.80;;;1.80;;
34064;SDS011;20339;49.754;20.158;2023-05-10T12:33:11;3.30;;;1.90;;
34064;SDS011;20339;49.754;20.158;2023-05-10T12:35:45;2.00;;;1.80;;
34064;SDS011;20339;49.754;20.158;2023-05-10T12:38:25;4.70;;;1.70;;
34064;SDS011;20339;49.754;20.158;2023-05-10T12:40:59;2.50;;;1.90;;
34064;SDS011;20339;49.754;20.158;2023-05-10T12:43:31;2.40;;;1.60;;
34064;SDS011;20339;49.754;20.158;2023-05-10T12:46:07;2.00;;;1.50;;
34064;SDS011;20339;49.754;20.158;2023-05-10T12:48:42;3.40;;;2.30;;
34064;SDS011;20339;49.754;20.158;2023-05-10T12:51:15;3.80;;;1.70;;
34064;SDS011;20339;49.754;20.158;2023-05-10T12:53:50;2.40;;;2.00;;
34064;SDS011;20339;49.754;20.158;2023-05-10T12:56:20;3.10;;;1.90;;
34064;SDS011;20339;49.754;20.158;2023-05-10T12:58:51;2.20;;;1.60;;
34064;SDS011;20339;49.754;20.158;2023-05-10T13:01:22;2.20;;;1.70;;
34064;SDS011;20339;49.754;20.158;2023-05-10T13:03:53;3.20;;;2.10;;
34064;SDS011;20339;49.754;20.158;2023-05-10T13:06:24;2.60;;;1.70;;
34064;SDS011;20339;49.754;20.158;2023-05-10T13:08:55;3.20;;;1.80;;
34064;SDS011;20339;49.754;20.158;2023-05-10T13:11:26;3.00;;;2.00;;
34064;SDS011;20339;49.754;20.158;2023-05-10T13:13:57;3.00;;;2.10;;
34064;SDS011;20339;49.754;20.158;2023-05-10T13:16:31;4.20;;;2.10;;
34064;SDS011;20339;49.754;20.158;2023-05-10T13:19:02;2.70;;;1.80;;
34064;SDS011;20339;49.754;20.158;2023-05-10T13:21:33;2.50;;;2.20;;
34064;SDS011;20339;49.754;20.158;2023-05-10T13:24:03;2.90;;;2.10;;
34064;SDS011;20339;49.754;20.158;2023-05-10T13:26:34;4.60;;;1.90;;
34064;SDS011;20339;49.754;20.158;2023-05-10T13:29:05;2.00;;;1.70;;
34064;SDS011;20339;49.754;20.158;2023-05-10T13:31:36;4.20;;;2.20;;
34064;SDS011;20339;49.754;20.158;2023-05-10T13:34:07;3.40;;;2.10;;
34064;SDS011;20339;49.754;20.158;2023-05-10T13:36:38;2.30;;;2.10;;
34064;SDS011;20339;49.754;20.158;2023-05-10T13:39:09;2.70;;;1.80;;
34064;SDS011;20339;49.754;20.158;2023-05-10T13:41:41;3.30;;;1.80;;
34064;SDS011;20339;49.754;20.158;2023-05-10T13:44:13;3.30;;;1.90;;
34064;SDS011;20339;49.754;20.158;2023-05-10T13:46:44;2.80;;;2.10;;
34064;SDS011;20339;49.754;20.158;2023-05-10T13:49:16;2.00;;;1.80;;
34064;SDS011;20339;49.754;20.158;2023-05-10T13:51:47;2.40;;;2.00;;
34064;SDS011;20339;49.754;20.158;2023-05-10T13:54:18;3.90;;;1.70;;
34064;SDS011;20339;49.754;20.158;2023-05-10T13:56:50;2.50;;;1.80;;
34064;SDS011;20339;49.754;20.158;2023-05-10T13:59:21;2.10;;;1.70;;
34064;SDS011;20339;49.754;20.158;2023-05-10T14:01:52;3.20;;;2.10;;
34064;SDS011;20339;49.754;20.158;2023-05-10T14:04:23;3.90;;;2.10;;
34064;SDS011;20339;49.754;20.158;2023-05-10T14:06:54;2.40;;;1.60;;
34064;SDS011;20339;49.754;20.158;2023-05-10T14:09:25;2.50;;;1.90;;
34064;SDS011;20339;49.754;20.158;2023-05-10T14:11:56;1.40;;;1.30;;
34064;SDS011;20339;49.754;20.158;2023-05-10T14:14:27;4.80;;;2.40;;
34064;SDS011;20339;49.754;20.158;2023-05-10T14:16:58;2.90;;;1.60;;
34064;SDS011;20339;49.754;20.158;2023-05-10T14:19:29;7.70;;;2.00;;
34064;SDS011;20339;49.754;20.158;2023-05-10T14:22:01;3.70;;;1.80;;
34064;SDS011;20339;49.754;20.158;2023-05-10T14:24:32;2.40;;;1.60;;
34064;SDS011;20339;49.754;20.158;2023-05-10T14:27:03;2.90;;;1.60;;
34064;SDS011;20339;49.754;20.158;2023-05-10T14:29:35;2.10;;;1.90;;
34064;SDS011;20339;49.754;20.158;2023-05-10T14:32:06;2.10;;;1.90;;
34064;SDS011;20339;49.754;20.158;2023-05-10T14:34:37;3.00;;;2.10;;
34064;SDS011;20339;49.754;20.158;2023-05-10T14:37:09;3.00;;;1.80;;
34064;SDS011;20339;49.754;20.158;2023-05-10T14:39:40;3.00;;;2.00;;
34064;SDS011;20339;49.754;20.158;2023-05-10T14:42:11;2.80;;;1.80;;
34064;SDS011;20339;49.754;20.158;2023-05-10T14:44:43;2.70;;;1.80;;
34064;SDS011;20339;49.754;20.158;2023-05-10T14:47:14;4.00;;;2.30;;
34064;SDS011;20339;49.754;20.158;2023-05-10T14:49:45;2.80;;;2.00;;
34064;SDS011;20339;49.754;20.158;2023-05-10T14:52:16;2.00;;;1.80;;
34064;SDS011;20339;49.754;20.158;2023-05-10T14:54:47;2.20;;;2.00;;
34064;SDS011;20339;49.754;20.158;2023-05-10T14:57:18;3.70;;;2.30;;
34064;SDS011;20339;49.754;20.158;2023-05-10T14:59:50;3.00;;;1.90;;
34064;SDS011;20339;49.754;20.158;2023-05-10T15:02:20;2.00;;;1.80;;
34064;SDS011;20339;49.754;20.158;2023-05-10T15:04:52;3.30;;;1.90;;
34064;SDS011;20339;49.754;20.158;2023-05-10T15:07:23;3.90;;;2.00;;
34064;SDS011;20339;49.754;20.158;2023-05-10T15:09:54;2.50;;;2.00;;